Time;durP1;ratioP1;P1;durP2;ratioP2;P2;SDS_P1;SDS_P2;PMS_P1;PMS_P2;Temp;Humidity;BMP_temperature;BMP_pressure;BME280_temperature;BME280_humidity;BME280_pressure;Samples;Min_cycle;Max_cycle;Signal;HPM_P1;HPM_P2
2024/01/01 00:00:40;;;;;;;16.73;7.80;;;;;;;9.14;100.00;96738.53;5059780;28;20140;-78
2024/01/01 00:03:08;;;;;;;18.02;7.88;;;;;;;9.05;100.00;96735.09;5063145;28;20053;-77
2024/01/01 00:05:37;;;;;;;16.40;7.05;;;;;;;8.90;100.00;96740.28;5064514;28;20049;-78
2024/01/01 00:08:04;;;;;;;19.45;7.45;;;;;;;8.93;100.00;96732.31;5055303;28;20049;-77
2024/01/01 00:10:31;;;;;;;19.83;7.35;;;;;;;9.18;100.00;96731.38;5056064;28;20071;-79
2024/01/01 00:12:58;;;;;;;13.10;6.28;;;;;;;8.93;100.00;96720.75;5063978;28;20131;-79
2024/01/01 00:15:24;;;;;;;17.67;6.72;;;;;;;9.01;100.00;96733.38;5063410;28;20056;-78
2024/01/01 00:17:51;;;;;;;18.25;6.10;;;;;;;8.85;100.00;96718.88;5060038;28;20168;-76
2024/01/01 00:20:18;;;;;;;18.92;5.65;;;;;;;8.94;100.00;96735.78;5055085;28;20056;-79
2024/01/01 00:22:47;;;;;;;16.00;5.53;;;;;;;9.00;100.00;96712.91;5056125;28;20045;-76
2024/01/01 00:25:13;;;;;;;11.63;5.53;;;;;;;8.98;100.00;96698.94;5063631;28;20459;-77
2024/01/01 00:27:40;;;;;;;13.40;5.28;;;;;;;8.89;100.00;96704.38;5055206;28;20056;-76
2024/01/01 00:30:07;;;;;;;15.82;4.93;;;;;;;8.85;100.00;96716.16;5062644;28;20057;-76
2024/01/01 00:32:34;;;;;;;9.50;3.88;;;;;;;8.89;100.00;96709.78;5057684;28;20053;-77
2024/01/01 00:35:03;;;;;;;12.50;4.60;;;;;;;8.96;100.00;96701.16;5058732;28;20053;-76
2024/01/01 00:37:30;;;;;;;11.13;4.40;;;;;;;8.80;100.00;96702.88;5060272;28;20056;-76
2024/01/01 00:39:57;;;;;;;14.48;4.00;;;;;;;9.05;100.00;96693.81;5050908;28;20526;-76
2024/01/01 00:42:25;;;;;;;17.95;4.80;;;;;;;9.02;100.00;96703.38;5050419;28;20064;-76
2024/01/01 00:44:52;;;;;;;13.15;3.70;;;;;;;9.03;100.00;96709.56;5049596;28;20045;-75
2024/01/01 00:47:19;;;;;;;11.07;3.97;;;;;;;8.70;100.00;96696.72;5056879;28;20072;-78
2024/01/01 00:49:46;;;;;;;9.68;3.35;;;;;;;8.81;100.00;96685.53;5057922;28;20128;-77
2024/01/01 00:52:12;;;;;;;12.95;3.50;;;;;;;8.84;100.00;96701.09;5059706;28;20044;-76
2024/01/01 00:54:39;;;;;;;10.25;4.13;;;;;;;8.77;100.00;96720.50;5051859;28;20051;-76
2024/01/01 00:57:06;;;;;;;8.20;3.35;;;;;;;8.97;100.00;96710.84;5050352;28;20056;-76
2024/01/01 00:59:33;;;;;;;8.63;3.22;;;;;;;8.88;100.00;96723.63;5054947;28;20041;-77
2024/01/01 01:01:59;;;;;;;10.75;3.40;;;;;;;8.96;100.00;96722.75;5056231;28;20076;-77
2024/01/01 01:04:26;;;;;;;7.88;2.47;;;;;;;9.05;100.00;96723.50;5059550;28;21084;-75
2024/01/01 01:06:55;;;;;;;6.35;2.78;;;;;;;9.14;100.00;96718.84;5044593;28;20053;-77
2024/01/01 01:09:22;;;;;;;9.70;2.92;;;;;;;8.96;100.00;96720.84;5058357;28;20398;-76
2024/01/01 01:11:49;;;;;;;7.30;3.10;;;;;;;9.03;100.00;96723.06;5057591;28;20431;-76
2024/01/01 01:14:16;;;;;;;6.90;3.00;;;;;;;9.03;100.00;96715.75;5037223;28;20045;-77
2024/01/01 01:16:43;;;;;;;7.13;2.75;;;;;;;9.09;100.00;96716.31;5038353;28;20041;-77
2024/01/01 01:19:10;;;;;;;8.68;2.70;;;;;;;9.18;100.00;96712.47;5036659;28;20057;-78
2024/01/01 01:21:40;;;;;;;9.38;3.00;;;;;;;9.26;100.00;96721.63;5048408;28;20554;-76
2024/01/01 01:24:07;;;;;;;7.97;2.70;;;;;;;9.20;100.00;96720.25;5053543;28;20073;-77
2024/01/01 01:26:34;;;;;;;8.50;2.80;;;;;;;9.35;100.00;96727.75;5049510;28;20046;-77
2024/01/01 01:29:00;;;;;;;11.18;2.35;;;;;;;9.23;100.00;96728.47;5053266;28;20045;-76
2024/01/01 01:31:27;;;;;;;9.93;3.10;;;;;;;9.26;100.00;96735.13;5056041;28;20053;-77
2024/01/01 01:33:54;;;;;;;8.35;2.78;;;;;;;9.24;100.00;96740.84;5055562;28;20056;-77
2024/01/01 01:36:21;;;;;;;10.23;2.85;;;;;;;9.10;100.00;96743.03;5049236;28;20095;-75
2024/01/01 01:38:48;;;;;;;9.40;3.35;;;;;;;9.31;100.00;96743.03;5046561;28;20045;-78
2024/01/01 01:41:14;;;;;;;9.25;3.38;;;;;;;9.27;100.00;96761.00;5046796;28;20061;-77
2024/01/01 01:43:41;;;;;;;10.23;2.97;;;;;;;9.04;100.00;96748.91;5031065;28;20069;-76
2024/01/01 01:46:08;;;;;;;14.30;3.22;;;;;;;8.90;100.00;96756.47;5027290;28;20129;-77
2024/01/01 01:48:35;;;;;;;8.45;3.20;;;;;;;9.10;100.00;96753.03;5032153;28;20060;-76
2024/01/01 01:51:02;;;;;;;8.55;2.70;;;;;;;8.89;100.00;96744.06;5030742;28;20049;-77
2024/01/01 01:53:30;;;;;;;8.55;3.10;;;;;;;9.12;100.00;96754.28;5013766;28;20041;-77
2024/01/01 01:56:02;;;;;;;9.05;3.40;;;;;;;8.98;100.00;96751.00;5046779;28;20643;-77
2024/01/01 01:58:31;;;;;;;9.00;3.13;;;;;;;8.96;100.00;96744.34;5047668;28;20037;-77
2024/01/01 02:00:58;;;;;;;8.15;3.17;;;;;;;9.05;100.00;96761.31;5047371;28;20060;-77
2024/01/01 02:03:25;;;;;;;7.72;3.20;;;;;;;9.16;100.00;96759.81;5031929;28;20034;-76
2024/01/01 02:05:54;;;;;;;6.80;3.15;;;;;;;9.26;100.00;96754.03;5031422;28;20055;-76
2024/01/01 02:08:23;;;;;;;9.13;2.85;;;;;;;8.96;100.00;96747.84;5075013;28;20068;-77
2024/01/01 02:10:50;;;;;;;7.78;2.88;;;;;;;9.33;100.00;96736.19;5019224;28;20103;-77
2024/01/01 02:13:23;;;;;;;6.72;3.13;;;;;;;9.54;100.00;96732.72;5051439;28;20055;-76
2024/01/01 02:15:50;;;;;;;6.43;2.78;;;;;;;9.35;100.00;96738.56;5044416;28;20474;-75
2024/01/01 02:18:17;;;;;;;9.25;2.75;;;;;;;9.23;100.00;96733.09;5044115;28;20045;-77
2024/01/01 02:20:44;;;;;;;5.95;3.03;;;;;;;9.38;100.00;96714.41;5051504;28;20049;-76
2024/01/01 02:23:14;;;;;;;9.05;3.00;;;;;;;9.11;100.00;96719.53;5043484;28;20459;-77
2024/01/01 02:25:42;;;;;;;8.55;2.80;;;;;;;9.21;100.00;96724.53;5042764;28;20048;-76
2024/01/01 02:28:09;;;;;;;8.57;2.80;;;;;;;9.14;100.00;96718.84;5051244;28;20056;-76
2024/01/01 02:30:36;;;;;;;6.05;2.60;;;;;;;9.25;100.00;96728.94;5050935;28;20803;-76
2024/01/01 02:33:07;;;;;;;8.57;2.92;;;;;;;9.09;100.00;96719.81;5026159;28;20041;-76
2024/01/01 02:35:35;;;;;;;10.13;2.97;;;;;;;8.85;100.00;96716.16;5039455;28;20053;-75
2024/01/01 02:38:04;;;;;;;9.02;3.30;;;;;;;9.01;100.00;96717.97;5055378;28;20095;-76
2024/01/01 02:40:32;;;;;;;8.20;2.92;;;;;;;8.70;100.00;96714.78;5051915;28;20041;-77
2024/01/01 02:43:01;;;;;;;6.95;2.85;;;;;;;8.64;100.00;96727.69;5042824;28;20527;-77
2024/01/01 02:45:30;;;;;;;7.47;2.95;;;;;;;8.62;100.00;96729.91;5049199;28;20045;-76
2024/01/01 02:47:57;;;;;;;8.32;2.42;;;;;;;8.54;100.00;96713.78;5074642;28;20060;-76
2024/01/01 02:50:25;;;;;;;6.90;2.75;;;;;;;8.40;100.00;96724.78;5044641;28;20071;-76
2024/01/01 02:52:52;;;;;;;6.20;2.55;;;;;;;8.50;100.00;96734.41;5033025;28;20075;-75
2024/01/01 02:55:19;;;;;;;7.45;2.50;;;;;;;8.63;100.00;96723.41;5047264;28;20041;-77
2024/01/01 02:57:46;;;;;;;7.28;2.30;;;;;;;8.56;100.00;96725.03;5065202;28;20044;-75
2024/01/01 03:00:14;;;;;;;6.82;2.15;;;;;;;8.72;100.00;96736.88;5039291;28;20416;-77
2024/01/01 03:02:42;;;;;;;7.88;2.00;;;;;;;9.04;100.00;96732.72;5031645;28;20305;-76
2024/01/01 03:05:10;;;;;;;9.15;2.70;;;;;;;9.03;100.00;96720.34;5043503;28;20159;-76
2024/01/01 03:07:37;;;;;;;10.50;2.33;;;;;;;9.10;100.00;96726.81;5044680;28;20415;-76
2024/01/01 03:10:04;;;;;;;9.23;2.72;;;;;;;9.12;100.00;96721.06;5048622;28;20045;-77
2024/01/01 03:12:32;;;;;;;8.93;2.55;;;;;;;9.23;100.00;96711.47;5045990;28;20053;-77
2024/01/01 03:15:02;;;;;;;5.45;2.45;;;;;;;9.13;100.00;96718.06;5054579;28;20084;-76
2024/01/01 03:17:30;;;;;;;6.55;2.42;;;;;;;9.20;100.00;96714.84;5047742;28;20337;-78
2024/01/01 03:19:57;;;;;;;6.43;2.30;;;;;;;8.98;100.00;96713.22;5048191;28;20048;-77
2024/01/01 03:22:27;;;;;;;8.50;2.50;;;;;;;8.84;100.00;96711.88;5048055;28;20041;-76
2024/01/01 03:24:54;;;;;;;8.05;2.38;;;;;;;8.84;100.00;96718.06;5050282;28;20068;-77
2024/01/01 03:27:21;;;;;;;6.75;2.47;;;;;;;8.92;100.00;96709.13;5052284;28;20040;-76
2024/01/01 03:29:49;;;;;;;7.05;2.42;;;;;;;8.97;100.00;96703.56;5072675;28;20439;-77
2024/01/01 03:32:17;;;;;;;10.38;2.60;;;;;;;8.89;100.00;96711.69;5051675;28;20056;-77
2024/01/01 03:34:44;;;;;;;8.00;2.67;;;;;;;8.98;100.00;96704.34;5048083;28;20833;-78
2024/01/01 03:37:11;;;;;;;7.43;2.70;;;;;;;8.56;100.00;96690.75;5058778;28;20037;-77
2024/01/01 03:39:38;;;;;;;11.55;2.92;;;;;;;8.52;100.00;96689.00;5052461;28;20049;-77
2024/01/01 03:42:05;;;;;;;6.93;2.35;;;;;;;8.68;100.00;96693.56;5050941;28;20056;-76
2024/01/01 03:44:31;;;;;;;9.98;2.63;;;;;;;8.65;100.00;96693.41;5042338;28;20041;-78
2024/01/01 03:46:58;;;;;;;7.30;2.30;;;;;;;8.35;100.00;96697.19;5043077;28;20397;-78
2024/01/01 03:49:27;;;;;;;5.75;2.88;;;;;;;8.38;100.00;96688.47;5048066;28;20041;-77
2024/01/01 03:51:54;;;;;;;8.57;3.00;;;;;;;8.52;100.00;96681.72;5043101;28;20049;-77
2024/01/01 03:54:21;;;;;;;10.15;3.30;;;;;;;8.42;100.00;96678.59;5041707;28;20526;-76
2024/01/01 03:56:48;;;;;;;6.45;2.55;;;;;;;8.77;100.00;96688.88;5048669;28;20104;-78
2024/01/01 03:59:15;;;;;;;10.27;3.25;;;;;;;8.60;100.00;96675.50;5052370;28;20068;-75
2024/01/01 04:01:42;;;;;;;8.95;2.95;;;;;;;8.58;100.00;96680.44;5053810;28;20052;-76
2024/01/01 04:04:09;;;;;;;10.35;3.50;;;;;;;8.48;100.00;96670.00;5051164;28;20049;-76
2024/01/01 04:06:36;;;;;;;9.35;2.80;;;;;;;8.47;100.00;96673.03;5043400;28;20053;-77
2024/01/01 04:09:03;;;;;;;6.57;2.85;;;;;;;8.36;100.00;96664.50;5045229;28;20064;-77
2024/01/01 04:11:30;;;;;;;8.80;3.15;;;;;;;8.23;100.00;96665.50;5039426;28;20045;-76
2024/01/01 04:13:57;;;;;;;10.02;3.50;;;;;;;8.50;100.00;96673.16;5049816;28;20595;-77
2024/01/01 04:16:23;;;;;;;8.20;3.38;;;;;;;8.39;100.00;96682.72;5056905;28;20056;-77
2024/01/01 04:18:51;;;;;;;8.85;3.50;;;;;;;8.54;100.00;96692.97;5057559;28;20049;-77
2024/01/01 04:21:18;;;;;;;8.82;2.95;;;;;;;8.34;100.00;96680.22;5047318;28;20094;-76
2024/01/01 04:23:45;;;;;;;9.57;3.67;;;;;;;8.23;100.00;96665.50;5056901;28;20092;-78
2024/01/01 04:26:13;;;;;;;13.20;3.45;;;;;;;8.43;100.00;96677.50;5050066;28;20052;-76
2024/01/01 04:28:41;;;;;;;10.52;3.58;;;;;;;8.34;100.00;96677.53;5060933;28;20056;-77
2024/01/01 04:31:08;;;;;;;18.38;3.90;;;;;;;8.35;100.00;96664.84;5040632;28;20063;-77
2024/01/01 04:33:34;;;;;;;8.48;2.70;;;;;;;8.43;100.00;96672.09;5053132;28;20466;-76
2024/01/01 04:36:03;;;;;;;8.00;3.13;;;;;;;8.47;100.00;96681.09;5046389;28;20049;-77
2024/01/01 04:38:30;;;;;;;13.13;3.65;;;;;;;8.47;100.00;96679.22;5040177;28;20045;-76
2024/01/01 04:40:57;;;;;;;8.90;3.50;;;;;;;8.44;100.00;96693.34;5039827;28;20056;-76
2024/01/01 04:43:24;;;;;;;8.60;3.05;;;;;;;8.19;100.00;96678.03;5011292;28;20060;-76
2024/01/01 04:45:51;;;;;;;8.98;3.55;;;;;;;8.33;100.00;96700.22;5042903;28;20530;-76
2024/01/01 04:48:17;;;;;;;11.10;3.83;;;;;;;8.03;100.00;96688.53;5055221;28;20044;-77
2024/01/01 04:50:44;;;;;;;9.65;3.58;;;;;;;8.23;100.00;96702.44;5042449;28;20431;-76
2024/01/01 04:53:11;;;;;;;10.55;3.63;;;;;;;8.23;100.00;96699.75;5047559;28;20049;-75
2024/01/01 04:55:38;;;;;;;9.82;3.80;;;;;;;8.29;100.00;96706.56;5048279;28;20052;-76
2024/01/01 04:58:04;;;;;;;11.43;4.22;;;;;;;8.20;100.00;96714.66;5049948;28;20069;-77
2024/01/01 05:00:32;;;;;;;10.32;3.80;;;;;;;8.11;100.00;96708.50;5049672;28;20037;-77
2024/01/01 05:02:58;;;;;;;14.55;3.60;;;;;;;8.39;100.00;96706.22;5050018;28;20473;-77
2024/01/01 05:05:25;;;;;;;11.48;3.70;;;;;;;8.45;100.00;96694.94;5056108;28;20041;-76
2024/01/01 05:07:53;;;;;;;14.55;4.25;;;;;;;8.15;100.00;96706.75;5048859;28;20057;-76
2024/01/01 05:10:20;;;;;;;8.98;3.58;;;;;;;8.22;100.00;96709.72;5049265;28;20584;-76
2024/01/01 05:12:46;;;;;;;14.98;4.30;;;;;;;7.94;100.00;96698.56;5038969;28;20060;-76
2024/01/01 05:15:13;;;;;;;14.52;4.35;;;;;;;7.98;100.00;96687.91;5066394;28;20095;-75
2024/01/01 05:17:40;;;;;;;16.38;4.25;;;;;;;8.29;100.00;96701.97;5046301;28;20052;-76
2024/01/01 05:20:07;;;;;;;9.95;3.97;;;;;;;7.97;100.00;96695.22;5046528;28;20049;-77
2024/01/01 05:22:34;;;;;;;13.20;4.70;;;;;;;7.94;100.00;96695.06;5073109;28;20124;-78
2024/01/01 05:25:01;;;;;;;12.88;4.68;;;;;;;8.08;100.00;96695.66;5045669;28;20068;-78
2024/01/01 05:27:28;;;;;;;11.00;4.80;;;;;;;7.94;100.00;96695.88;5049652;28;20054;-79
2024/01/01 05:29:55;;;;;;;12.32;4.75;;;;;;;8.11;100.00;96703.91;5057876;28;20111;-76
2024/01/01 05:32:21;;;;;;;13.60;4.65;;;;;;;8.08;100.00;96696.44;5049915;28;20531;-78
2024/01/01 05:34:48;;;;;;;14.90;5.10;;;;;;;8.11;100.00;96701.19;5047331;28;20037;-75
2024/01/01 05:37:15;;;;;;;16.02;4.57;;;;;;;8.03;100.00;96698.53;5031060;28;20060;-77
2024/01/01 05:39:42;;;;;;;15.23;4.97;;;;;;;8.18;100.00;96701.50;5050034;28;20144;-78
2024/01/01 05:42:09;;;;;;;13.60;5.43;;;;;;;8.08;100.00;96709.13;5051271;28;20053;-77
2024/01/01 05:44:35;;;;;;;18.00;5.63;;;;;;;8.29;100.00;96699.28;5054417;28;20049;-77
2024/01/01 05:47:02;;;;;;;13.93;5.25;;;;;;;7.91;100.00;96696.50;5053286;28;20041;-77
2024/01/01 05:49:29;;;;;;;13.75;5.50;;;;;;;7.91;100.00;96690.31;5052524;28;20040;-78
2024/01/01 05:51:56;;;;;;;17.25;5.05;;;;;;;8.01;100.00;96692.66;5050452;28;20474;-78
2024/01/01 05:54:23;;;;;;;14.60;5.10;;;;;;;7.85;100.00;96684.28;5053776;28;20072;-77
2024/01/01 05:56:49;;;;;;;15.20;5.00;;;;;;;7.82;100.00;96684.16;5053411;28;20167;-77
2024/01/01 05:59:16;;;;;;;13.57;5.70;;;;;;;7.67;100.00;96692.72;5058381;28;20071;-77
2024/01/01 06:01:43;;;;;;;15.30;5.13;;;;;;;7.56;100.00;96680.72;5055327;28;20064;-77
2024/01/01 06:04:10;;;;;;;12.18;4.93;;;;;;;7.60;100.00;96695.91;5052431;28;20102;-79
2024/01/01 06:06:36;;;;;;;14.82;5.45;;;;;;;7.53;100.00;96698.28;5055640;28;20069;-77
2024/01/01 06:09:03;;;;;;;14.73;5.13;;;;;;;7.59;100.00;96693.53;5048271;28;20060;-77
2024/01/01 06:11:30;;;;;;;13.57;5.80;;;;;;;7.57;100.00;96717.28;5051370;28;20041;-78
2024/01/01 06:14:00;;;;;;;13.60;4.97;;;;;;;7.48;100.00;96715.38;5050083;28;20501;-77
2024/01/01 06:16:28;;;;;;;17.42;5.07;;;;;;;7.50;100.00;96702.41;5054623;28;20931;-78
2024/01/01 06:18:55;;;;;;;14.38;5.22;;;;;;;7.59;100.00;96715.09;5039359;28;20055;-77
2024/01/01 06:21:23;;;;;;;12.55;5.13;;;;;;;7.82;100.00;96714.56;5042104;28;20076;-77
2024/01/01 06:23:50;;;;;;;17.05;5.55;;;;;;;7.72;100.00;96714.09;5042697;28;20045;-77
2024/01/01 06:26:16;;;;;;;13.77;5.50;;;;;;;7.71;100.00;96701.75;5046210;28;20048;-77
2024/01/01 06:28:43;;;;;;;19.67;5.38;;;;;;;7.98;100.00;96720.25;5031119;28;20045;-77
2024/01/01 06:31:10;;;;;;;13.63;4.95;;;;;;;7.91;100.00;96723.44;5047441;28;20053;-77
2024/01/01 06:33:37;;;;;;;16.38;5.22;;;;;;;7.94;100.00;96722.00;5055080;28;20045;-78
2024/01/01 06:36:04;;;;;;;10.05;4.70;;;;;;;7.94;100.00;96727.41;5052076;28;20045;-78
2024/01/01 06:38:31;;;;;;;13.43;5.97;;;;;;;8.02;100.00;96732.00;5047594;28;20052;-77
2024/01/01 06:40:57;;;;;;;18.25;5.65;;;;;;;7.98;100.00;96721.03;5036734;28;20048;-77
2024/01/01 06:43:24;;;;;;;13.43;5.35;;;;;;;8.06;100.00;96731.03;5052512;28;20067;-76
2024/01/01 06:45:51;;;;;;;15.10;4.70;;;;;;;7.95;100.00;96737.06;5044080;28;20063;-77
2024/01/01 06:48:18;;;;;;;14.95;5.40;;;;;;;8.01;100.00;96739.28;5043360;28;20108;-76
2024/01/01 06:50:45;;;;;;;13.07;5.35;;;;;;;8.21;100.00;96753.19;5047447;28;20041;-78
2024/01/01 06:53:11;;;;;;;10.77;4.68;;;;;;;8.04;100.00;96730.56;5049808;28;20052;-77
2024/01/01 06:55:38;;;;;;;16.75;5.13;;;;;;;8.04;100.00;96746.72;5052169;28;20104;-77
2024/01/01 06:58:05;;;;;;;12.88;5.03;;;;;;;8.00;100.00;96753.09;5053921;28;20044;-76
2024/01/01 07:00:32;;;;;;;13.50;5.18;;;;;;;8.03;100.00;96753.22;5049780;28;20040;-77
2024/01/01 07:03:00;;;;;;;14.60;4.85;;;;;;;8.10;100.00;96767.00;5049011;28;20091;-76
2024/01/01 07:05:29;;;;;;;13.95;4.95;;;;;;;7.99;100.00;96754.97;5052415;28;20041;-79
2024/01/01 07:07:56;;;;;;;15.73;5.25;;;;;;;8.09;100.00;96767.31;5054501;28;20041;-76
2024/01/01 07:10:23;;;;;;;13.85;4.80;;;;;;;8.13;100.00;96768.25;5040427;28;20106;-76
2024/01/01 07:12:50;;;;;;;16.58;5.10;;;;;;;8.25;100.00;96767.63;5048293;28;20123;-76
2024/01/01 07:15:17;;;;;;;14.88;4.65;;;;;;;8.12;100.00;96764.00;5055830;28;20037;-78
2024/01/01 07:17:43;;;;;;;18.52;5.43;;;;;;;7.93;100.00;96764.31;5048875;28;20045;-76
2024/01/01 07:20:12;;;;;;;11.73;4.53;;;;;;;7.69;100.00;96760.56;5044510;28;20049;-77
2024/01/01 07:22:38;;;;;;;12.13;5.13;;;;;;;7.88;100.00;96764.50;5052979;28;20111;-77
2024/01/01 07:25:06;;;;;;;13.32;4.95;;;;;;;7.92;100.00;96749.25;5041857;28;20639;-78
2024/01/01 07:27:33;;;;;;;15.95;4.95;;;;;;;8.00;100.00;96750.38;5036655;28;20048;-76
2024/01/01 07:30:03;;;;;;;9.23;4.00;;;;;;;7.91;100.00;96760.38;5039059;28;20041;-77
2024/01/01 07:32:30;;;;;;;14.15;4.38;;;;;;;7.80;100.00;96759.09;5038625;28;20125;-76
2024/01/01 07:34:57;;;;;;;12.13;4.65;;;;;;;7.83;100.00;96766.56;5043772;28;20512;-77
2024/01/01 07:37:24;;;;;;;12.95;4.63;;;;;;;7.83;100.00;96767.34;5046093;28;20124;-77
2024/01/01 07:39:51;;;;;;;14.77;4.68;;;;;;;7.75;100.00;96756.56;5050761;28;20068;-77
2024/01/01 07:42:18;;;;;;;14.30;4.55;;;;;;;7.72;100.00;96773.34;5053985;28;20048;-76
2024/01/01 07:44:45;;;;;;;18.08;4.63;;;;;;;7.77;100.00;96773.22;5050679;28;20076;-77
2024/01/01 07:47:11;;;;;;;12.65;4.43;;;;;;;7.70;100.00;96780.97;5051128;28;20423;-78
2024/01/01 07:49:39;;;;;;;11.65;4.68;;;;;;;7.87;100.00;96776.38;5043785;28;20615;-76
2024/01/01 07:52:06;;;;;;;11.93;4.50;;;;;;;7.66;100.00;96763.88;5059284;28;20049;-77
2024/01/01 07:54:32;;;;;;;10.70;3.92;;;;;;;7.72;100.00;96782.25;5053067;28;20076;-76
2024/01/01 07:57:00;;;;;;;8.75;3.80;;;;;;;7.60;100.00;96775.91;5052931;28;20500;-77
2024/01/01 07:59:27;;;;;;;8.65;3.53;;;;;;;7.69;100.00;96784.78;5059879;28;20527;-76
2024/01/01 08:01:54;;;;;;;15.85;4.28;;;;;;;7.66;100.00;96780.03;5054987;28;20085;-79
2024/01/01 08:04:20;;;;;;;10.70;3.58;;;;;;;7.84;100.00;96782.41;5047173;28;20110;-78
2024/01/01 08:06:47;;;;;;;13.35;4.43;;;;;;;7.76;100.00;96774.31;5039335;28;20040;-76
2024/01/01 08:09:14;;;;;;;14.57;4.68;;;;;;;7.58;100.00;96768.16;5046559;28;20041;-75
2024/01/01 08:11:41;;;;;;;11.00;4.30;;;;;;;7.81;100.00;96758.81;5045212;28;20116;-77
2024/01/01 08:14:07;;;;;;;10.43;3.95;;;;;;;7.99;100.00;96776.53;5030626;28;20056;-77
2024/01/01 08:16:34;;;;;;;9.90;3.80;;;;;;;7.62;100.00;96770.97;5035884;28;20458;-76
2024/01/01 08:19:01;;;;;;;9.32;3.45;;;;;;;7.71;100.00;96777.19;5040670;28;20499;-76
2024/01/01 08:21:28;;;;;;;10.13;3.17;;;;;;;7.66;100.00;96774.66;5041234;28;20048;-76
2024/01/01 08:23:55;;;;;;;12.63;3.50;;;;;;;7.69;100.00;96765.94;5068677;28;20415;-77
2024/01/01 08:26:21;;;;;;;11.65;3.50;;;;;;;7.78;100.00;96769.41;5047976;28;20045;-77
2024/01/01 08:28:51;;;;;;;12.63;3.47;;;;;;;7.88;100.00;96771.78;5043757;28;20072;-77
2024/01/01 08:31:19;;;;;;;9.90;3.53;;;;;;;7.95;100.00;96756.72;5044187;28;20042;-77
2024/01/01 08:33:46;;;;;;;11.45;3.70;;;;;;;7.88;100.00;96767.19;5052317;28;20052;-76
2024/01/01 08:36:13;;;;;;;9.68;3.03;;;;;;;7.89;100.00;96757.22;5046389;28;20639;-76
2024/01/01 08:38:40;;;;;;;10.02;3.75;;;;;;;8.01;100.00;96763.53;5043533;28;20535;-76
2024/01/01 08:41:07;;;;;;;9.38;3.38;;;;;;;8.02;100.00;96758.94;5048390;28;20635;-78
2024/01/01 08:43:34;;;;;;;14.15;3.50;;;;;;;8.06;100.00;96754.47;5052916;28;20104;-76
2024/01/01 08:46:00;;;;;;;9.95;2.90;;;;;;;8.08;100.00;96768.41;5040648;28;20132;-77
2024/01/01 08:48:27;;;;;;;10.98;3.05;;;;;;;8.00;100.00;96753.84;5042789;28;20042;-77
2024/01/01 08:50:54;;;;;;;10.02;3.03;;;;;;;8.22;100.00;96770.94;5072081;28;20057;-76
2024/01/01 08:53:21;;;;;;;9.05;3.15;;;;;;;8.36;100.00;96785.06;5046159;28;20117;-77
2024/01/01 08:55:48;;;;;;;9.70;3.35;;;;;;;8.35;100.00;96781.56;5046556;28;20045;-76
2024/01/01 08:58:15;;;;;;;12.40;3.38;;;;;;;8.55;100.00;96778.19;5047523;28;20064;-77
2024/01/01 09:00:42;;;;;;;12.80;3.33;;;;;;;8.71;100.00;96773.84;5042666;28;20111;-77
2024/01/01 09:03:08;;;;;;;10.98;2.72;;;;;;;8.77;100.00;96785.25;5038182;28;20053;-77
2024/01/01 09:05:35;;;;;;;6.72;2.80;;;;;;;8.79;100.00;96780.31;5055674;28;20100;-76
2024/01/01 09:08:02;;;;;;;9.50;3.40;;;;;;;9.06;100.00;96790.66;5060729;28;20049;-76
2024/01/01 09:10:30;;;;;;;6.10;2.78;;;;;;;8.68;100.00;96789.88;5078807;28;20045;-77
2024/01/01 09:12:56;;;;;;;6.03;2.67;;;;;;;8.98;100.00;96791.50;5054174;28;20128;-76
2024/01/01 09:15:23;;;;;;;6.93;2.67;;;;;;;9.19;100.00;96792.34;5047949;28;20132;-76
2024/01/01 09:17:50;;;;;;;7.05;2.40;;;;;;;9.13;100.00;96787.47;5044534;28;20053;-75
2024/01/01 09:20:17;;;;;;;8.88;2.63;;;;;;;8.98;100.00;96793.44;5044179;28;20042;-76
2024/01/01 09:22:44;;;;;;;7.82;2.80;;;;;;;9.10;100.00;96786.22;5044041;28;20048;-76
2024/01/01 09:25:11;;;;;;;11.32;2.53;;;;;;;9.30;100.00;96777.34;5059203;28;20046;-76
2024/01/01 09:27:37;;;;;;;9.68;2.75;;;;;;;9.37;100.00;96785.72;5064745;28;20052;-76
2024/01/01 09:30:04;;;;;;;10.55;2.60;;;;;;;9.22;100.00;96790.91;5060882;28;20147;-77
2024/01/01 09:32:31;;;;;;;7.53;2.88;;;;;;;9.37;100.00;96785.72;5043238;28;20620;-77
2024/01/01 09:34:59;;;;;;;8.70;2.40;;;;;;;9.89;100.00;96796.16;5045328;28;20507;-77
2024/01/01 09:37:26;;;;;;;12.48;2.58;;;;;;;9.99;100.00;96801.97;5032709;28;20041;-75
2024/01/01 09:39:53;;;;;;;7.30;2.13;;;;;;;9.87;100.00;96798.41;5043319;28;20072;-76
2024/01/01 09:42:20;;;;;;;9.40;2.08;;;;;;;9.59;100.00;96797.34;5047387;28;20438;-76
2024/01/01 09:44:50;;;;;;;4.20;1.92;;;;;;;9.34;100.00;96793.72;5030774;28;20053;-76
2024/01/01 09:47:17;;;;;;;7.95;2.00;;;;;;;9.52;100.00;96792.47;5038990;28;20045;-77
2024/01/01 09:49:47;;;;;;;8.93;2.33;;;;;;;9.73;100.00;96790.56;5045036;28;20049;-77
2024/01/01 09:52:14;;;;;;;13.88;2.13;;;;;;;9.55;100.00;96797.22;5053457;28;20049;-76
2024/01/01 09:54:41;;;;;;;9.25;2.53;;;;;;;9.72;100.00;96791.69;5057934;28;20045;-76
2024/01/01 09:57:08;;;;;;;9.07;2.15;;;;;;;9.59;100.00;96795.44;5048210;28;20093;-77
2024/01/01 09:59:40;;;;;;;7.05;1.92;;;;;;;9.95;100.00;96803.75;5043781;28;20115;-76
2024/01/01 10:02:09;;;;;;;8.18;2.25;;;;;;;10.07;100.00;96802.22;5048760;28;20103;-76
2024/01/01 10:04:36;;;;;;;7.13;2.10;;;;;;;9.77;100.00;96794.19;5050188;28;20048;-76
2024/01/01 10:07:03;;;;;;;6.95;2.25;;;;;;;10.04;100.00;96800.97;5043446;28;20072;-76
2024/01/01 10:09:30;;;;;;;6.07;1.92;;;;;;;9.77;100.00;96806.91;5040994;28;20049;-77
2024/01/01 10:12:09;;;;;;;7.72;2.00;;;;;;;9.29;100.00;96810.09;5036715;28;20068;-76
2024/01/01 10:14:48;;;;;;;5.35;1.90;;;;;;;9.36;100.00;96804.97;5036134;28;21618;-76
2024/01/01 10:17:17;;;;;;;8.32;2.13;;;;;;;9.18;100.00;96798.88;5040177;28;20470;-77
2024/01/01 10:19:52;;;;;;;9.13;1.88;;;;;;;9.28;100.00;96801.22;5043288;28;20048;-76
2024/01/01 10:22:22;;;;;;;4.55;1.65;;;;;;;9.01;100.00;96812.44;5035399;28;20055;-74
2024/01/01 10:24:55;;;;;;;5.13;1.58;;;;;;;9.07;100.00;96796.84;5048463;28;20038;-76
2024/01/01 10:27:25;;;;;;;10.77;2.28;;;;;;;9.10;100.00;96805.13;5033175;28;20041;-75
2024/01/01 10:29:51;;;;;;;7.28;2.00;;;;;;;8.95;100.00;96808.38;5042664;28;20041;-76
2024/01/01 10:32:18;;;;;;;8.13;1.88;;;;;;;9.13;100.00;96796.38;5052290;28;20041;-77
2024/01/01 10:34:46;;;;;;;7.28;2.33;;;;;;;9.13;100.00;96799.06;5039874;28;20323;-78
2024/01/01 10:37:25;;;;;;;7.85;2.20;;;;;;;9.09;100.00;96806.22;5049102;28;20068;-76
2024/01/01 10:39:53;;;;;;;7.13;1.70;;;;;;;9.21;100.00;96802.84;5050101;28;20190;-75
2024/01/01 10:42:20;;;;;;;4.45;1.40;;;;;;;9.42;100.00;96792.06;5044224;28;20042;-77
2024/01/01 10:44:49;;;;;;;8.05;1.65;;;;;;;9.46;100.00;96803.78;5043546;28;20045;-77
2024/01/01 10:47:19;;;;;;;6.65;1.77;;;;;;;9.48;100.00;96796.94;5042931;28;20073;-77
2024/01/01 10:49:59;;;;;;;5.40;1.60;;;;;;;9.91;100.00;96804.75;5036991;28;20052;-75
2024/01/01 10:52:44;;;;;;;4.40;1.60;;;;;;;9.73;100.00;96792.50;5035845;28;20099;-77
2024/01/01 10:55:38;;;;;;;7.57;2.22;;;;;;;9.80;100.00;96793.53;5035607;28;20059;-77
2024/01/01 10:58:44;;;;;;;6.93;1.77;;;;;;;9.80;100.00;96787.34;5034296;28;21617;-76
2024/01/01 11:01:17;;;;;;;6.18;1.65;;;;;;;9.88;100.00;96789.19;5038034;28;21692;-76
2024/01/01 11:03:48;;;;;;;5.22;1.45;;;;;;;9.94;100.00;96783.25;5035779;28;20060;-76
2024/01/01 11:06:31;;;;;;;4.82;1.80;;;;;;;9.74;100.00;96786.75;5023197;28;20148;-75
2024/01/01 11:09:21;;;;;;;9.13;1.30;;;;;;;9.82;100.00;96794.00;5041584;28;20065;-77
2024/01/01 11:11:48;;;;;;;5.47;1.15;;;;;;;9.74;99.79;96791.34;5033222;28;20672;-76
2024/01/01 11:14:37;;;;;;;7.63;1.80;;;;;;;9.77;100.00;96794.19;5042830;28;20596;-77
2024/01/01 11:17:09;;;;;;;5.40;1.10;;;;;;;9.88;100.00;96795.38;5034834;28;20041;-76
2024/01/01 11:19:41;;;;;;;4.07;1.15;;;;;;;9.82;100.00;96795.91;5023162;28;20045;-76
2024/01/01 11:22:29;;;;;;;4.63;1.00;;;;;;;9.70;100.00;96788.53;5029123;28;20044;-75
2024/01/01 11:24:59;;;;;;;7.43;1.00;;;;;;;9.78;100.00;96789.59;5054102;28;20675;-76
2024/01/01 11:27:31;;;;;;;7.85;1.13;;;;;;;10.00;100.00;96795.44;5032145;28;20053;-77
2024/01/01 11:30:09;;;;;;;5.78;1.08;;;;;;;9.68;100.00;96777.25;5030711;28;20037;-77
2024/01/01 11:32:37;;;;;;;5.13;1.08;;;;;;;9.69;100.00;96803.16;5034156;28;20319;-76